Latest Coastal Weather Observations for Cape Sorell

IDT60701

Issued at 9:02 am EST Monday 2 May 2016 (issued every 10 minutes, with the page automatically refreshed every 10 minutes)

About coastal observations | Map of coastal stations | Coastal observations for TAS | Marine services | Other Formats
Station Details ID: 097000 Name: CAPE SORELL Lat: -42.20 Lon: 145.17 Height: 19.3 m
Data from the previous 72 hours. | See also: Recent months at Cape Sorell
Date/Time
EST
Temp

°C
Wind Pressure Rain
since 9am
mm
Weather Cloud Vis
km
Sea
Height
m
Swell
Dir
 
Speed
knots
Gust
knots
hPa Trend Height
m
Period
s
Dir
02/09:00am 13.5 NNW 22 30 1002.9 - 4.4 Recent precip. - - - - - -
02/08:30am 12.5 NNW 20 25 1003.4 - 4.4 - - - - - - -
02/08:00am 13.8 NNW 19 25 1003.5 - 4.0 - - - - - - -
02/07:30am 13.5 NW 18 26 1003.7 - 4.0 - - - - - - -
02/07:00am 13.1 NW 18 22 1003.9 - 4.0 - - - - - - -
02/06:30am 12.8 NW 18 26 1004.2 - 4.0 - - - - - - -
02/06:00am 12.2 NW 16 24 1004.5 - 4.0 Recent precip. - - - - - -
02/05:37am 12.9 WNW 21 33 1004.4 - 4.0 - - - - - - -
02/05:30am 12.7 WNW 20 29 1004.5 - 3.8 - - - - - - -
02/05:00am 12.4 NW 16 24 1004.5 - 3.8 - - - - - - -
02/04:30am 11.7 NW 18 23 1004.7 - 3.8 - - - - - - -
02/04:06am 12.4 WNW 23 35 1004.5 - 3.8 - - - - - - -
02/04:00am 12.4 WNW 22 30 1004.6 - 3.8 - - - - - - -
02/03:30am 11.9 WNW 20 28 1004.8 - 3.8 - - - - - - -
02/03:00am 12.0 WNW 20 27 1005.1 - 3.8 - - - - - - -
02/02:38am 11.9 WNW 21 31 1004.9 - 3.8 - - - - - - -
02/02:30am 11.7 W 19 28 1005.1 - 3.8 - - - - - - -
02/02:00am 11.0 W 21 35 1005.3 - 3.8 - - - - - - -
02/01:52am 12.2 W 21 35 1005.2 - 3.8 - - - - - - -
02/01:30am 11.8 WNW 20 28 1005.3 - 3.8 - - - - - - -
02/01:00am 11.3 W 18 26 1005.0 - 3.8 - - - - - - -
02/12:30am 10.9 W 17 24 1005.4 - 3.8 - - - - - - -
02/12:05am 10.9 W 19 33 1005.4 - 3.8 - - - - - - -
02/12:00am 10.9 W 18 25 1005.6 - 3.8 Recent precip. - - - - - -
 
Date/Time
EST
Temp

°C
Wind Pressure Rain
since 9am
mm
Weather Cloud Vis
km
Sea
Height
m
Swell
Dir
 
Speed
knots
Gust
knots
hPa Trend Height
m
Period
s
Dir
01/11:31pm 10.3 W 21 32 1005.7 - 3.6 - - - - - - -
01/11:30pm 10.8 W 21 32 1005.5 - 3.4 - - - - - - -
01/11:29pm 11.2 W 21 30 1005.7 - 3.2 - - - - - - -
01/11:00pm 11.2 WSW 22 26 1005.7 - 3.2 - - - - - - -
01/10:39pm 11.9 WSW 21 36 1005.3 - 3.2 - - - - - - -
01/10:30pm 11.8 WSW 21 27 1005.7 - 3.2 - - - - - - -
01/10:00pm 11.3 WSW 22 28 1005.8 - 3.2 - - - - - - -
01/09:30pm 11.4 WSW 23 32 1005.6 - 3.2 - - - - - - -
01/09:27pm 11.1 WSW 22 32 1005.9 - 3.2 - - - - - - -
01/09:00pm 12.0 WSW 28 34 1005.1 - 3.2 - - - - - - -
01/08:30pm 12.1 WSW 28 33 1004.8 - 3.2 - - - - - - -
01/08:12pm 12.3 WSW 27 37 1004.5 - 3.2 - - - - - - -
01/08:00pm 12.1 SW 25 31 1004.5 - 3.2 - - - - - - -
01/07:30pm 11.7 SW 28 35 1004.2 - 3.2 - - - - - - -
01/07:24pm 11.3 SW 30 41 1004.1 - 3.2 - - - - - - -
01/07:00pm 11.9 SW 33 39 1003.6 - 3.0 - - - - - - -
01/06:30pm 12.2 SW 34 39 1002.9 - 3.0 - - - - - - -
01/06:00pm 12.0 SW 35 43 1002.3 - 3.0 - - - - - - -
01/05:30pm 11.4 SW 34 41 1001.8 - 3.0 - - - - - - -
01/05:00pm 11.9 WSW 37 44 1000.7 - 3.0 - - - - - - -
01/04:50pm 11.9 WSW 34 44 1000.6 - 3.0 - - - - - - -
01/04:30pm 11.9 WSW 34 41 1000.0 - 3.0 - - - - - - -
01/04:10pm 12.0 SW 34 45 999.2 - 3.0 - - - - - - -
01/04:00pm 11.5 SW 36 45 998.8 - 3.0 - - - - - - -
01/03:50pm 11.9 SW 35 48 998.3 - 3.0 - - - - - - -
01/03:30pm 11.8 SW 35 43 997.9 - 3.0 - - - - - - -
01/03:00pm 11.4 SW 38 45 996.6 - 3.0 Recent precip. - - - - - -
01/02:30pm 11.1 WSW 41 50 995.4 - 2.8 - - - - - - -
01/02:10pm 11.4 WSW 40 51 994.8 - 2.8 - - - - - - -
01/02:00pm 10.9 WSW 42 52 994.0 - 2.6 - - - - - - -
01/01:30pm 11.3 WSW 45 56 992.2 - 2.0 - - - - - - -
01/01:27pm 11.4 WSW 45 56 992.3 - 1.8 - - - - - - -
01/01:05pm 11.2 WSW 51 61 990.3 - 1.8 - - - - - - -
01/01:00pm 11.1 WSW 52 61 989.3 - 1.6 - - - - - - -
01/12:38pm 12.4 SW 45 58 988.8 - 1.0 - - - - - - -
01/12:30pm 12.6 SW 32 50 988.9 - 0.6 - - - - - - -
01/12:28pm 12.6 WSW 26 48 989.0 - 0.6 - - - - - - -
01/12:26pm 12.7 WSW 21 42 989.8 - 0.6 - - - - - - -
01/12:00pm 12.7 WSW 14 18 990.2 - 0.2 Rain - - - - - -
01/11:30am 13.7 NW 13 18 990.3 - 0.0 - - - - - - -
01/11:16am 13.7 NNW 18 28 990.7 - 0.0 - - - - - - -
01/11:00am 15.5 N 18 23 990.7 - 0.0 - - - - - - -
01/10:30am 15.5 N 19 25 991.3 - 0.0 - - - - - - -
01/10:00am 15.1 NNE 21 24 991.5 - 0.0 - - - - - - -
01/09:30am 14.9 NNE 21 25 992.1 - 0.0 - - - - - - -
01/09:00am 14.9 NNE 22 27 992.3 - 11.4 Rain - - - - - -
01/08:30am 14.3 NE 22 27 992.6 - 11.2 - - - - - - -
01/08:00am 14.2 NE 17 22 993.5 - 11.2 - - - - - - -
01/07:30am 13.8 NE 17 23 994.4 - 11.2 - - - - - - -
01/07:00am 13.8 NE 17 22 994.6 - 11.2 - - - - - - -
01/06:41am 14.0 NE 20 31 995.3 - 10.8 - - - - - - -
01/06:30am 14.1 NE 21 24 995.9 - 10.4 - - - - - - -
01/06:00am 14.2 NE 16 22 996.4 - 10.2 Recent precip. - - - - - -
01/05:30am 14.5 N 16 23 997.6 - 10.2 - - - - - - -
01/05:00am 14.5 NNE 19 23 998.4 - 9.8 - - - - - - -
01/04:30am 15.3 NNE 15 20 998.0 - 7.4 - - - - - - -
01/04:00am 14.8 N 24 35 998.5 - 5.8 - - - - - - -
01/03:58am 14.9 N 25 35 998.5 - 5.6 - - - - - - -
01/03:52am 15.1 NNW 21 35 998.5 - 4.8 - - - - - - -
01/03:50am 15.4 NNW 19 34 998.6 - 4.4 - - - - - - -
01/03:41am 16.4 NNE 17 23 998.6 - 3.6 - - - - - - -
01/03:30am 16.9 NNE 15 19 997.5 - 2.6 - - - - - - -
01/03:00am 16.6 NNE 17 21 998.6 - 2.4 Recent precip. - - - - - -
01/02:38am 15.4 N 19 25 998.7 - 2.0 - - - - - - -
01/02:30am 15.6 NNW 14 23 999.6 - 1.6 - - - - - - -
01/02:26am 14.5 NNW 15 25 999.8 - 1.6 - - - - - - -
01/02:18am 17.2 N 23 31 1000.2 - 0.4 - - - - - - -
01/02:07am 17.2 NNE 29 39 999.1 - 0.4 - - - - - - -
01/02:00am 17.6 NNE 31 39 998.4 - 0.0 - - - - - - -
01/01:55am 17.9 NNE 29 39 998.2 - 0.0 - - - - - - -
01/01:30am 18.1 NNE 23 28 999.1 - 0.0 - - - - - - -
01/01:00am 17.8 NNE 18 22 1000.1 - 0.0 - - - - - - -
01/12:30am 17.3 NNE 15 18 1001.2 - 0.0 - - - - - - -
01/12:00am 17.5 NNE 19 22 1002.0 - 0.0 - - - - - - -
 
Date/Time
EST
Temp

°C
Wind Pressure Rain
since 9am
mm
Weather Cloud Vis
km
Sea
Height
m
Swell
Dir
 
Speed
knots
Gust
knots
hPa Trend Height
m
Period
s
Dir
30/11:30pm 17.4 NNE 18 21 1003.1 - 0.0 - - - - - - -
30/11:00pm 17.4 NNE 19 23 1004.0 - 0.0 - - - - - - -
30/10:30pm 17.4 NNE 22 27 1004.6 - 0.0 - - - - - - -
30/10:00pm 17.1 NNE 20 23 1005.2 - 0.0 - - - - - - -
30/09:30pm 16.9 NNE 18 20 1005.7 - 0.0 - - - - - - -
30/09:00pm 17.1 N 21 26 1005.9 - 0.0 - - - - - - -
30/08:30pm 17.1 N 20 24 1006.0 - 0.0 - - - - - - -
30/08:00pm 17.1 N 18 22 1006.1 - 0.0 - - - - - - -
30/07:30pm 17.1 N 15 19 1006.4 - 0.0 - - - - - - -
30/07:00pm 17.1 N 18 20 1006.4 - 0.0 - - - - - - -
30/06:30pm 17.1 NNW 16 23 1006.4 - 0.0 - - - - - - -
30/06:00pm 17.1 NNW 18 24 1006.2 - 0.0 - - - - - - -
30/05:30pm 17.2 NNW 17 23 1006.2 - 0.0 - - - - - - -
30/05:00pm 17.4 NNW 17 24 1006.5 - 0.0 - - - - - - -
30/04:30pm 17.7 NNW 17 24 1006.5 - 0.0 - - - - - - -
30/04:00pm 17.9 NNW 19 27 1006.5 - 0.0 - - - - - - -
30/03:30pm 17.9 NNW 18 24 1006.8 - 0.0 - - - - - - -
30/03:00pm 18.3 NNW 18 25 1007.0 - 0.0 - - - - - - -
30/02:30pm 18.6 NNW 19 26 1007.1 - 0.0 - - - - - - -
30/02:00pm 18.5 NNW 23 29 1007.1 - 0.0 - - - - - - -
30/01:30pm 18.6 N 23 27 1007.1 - 0.0 - - - - - - -
30/01:00pm 18.2 NNW 20 24 1007.4 - 0.0 - - - - - - -
30/12:30pm 19.0 N 21 25 1007.6 - 0.0 - - - - - - -
30/12:00pm 18.8 N 20 25 1008.1 - 0.0 - - - - - - -
30/11:30am 17.8 N 19 23 1008.6 - 0.0 - - - - - - -
30/11:00am 18.3 N 22 27 1008.6 - 0.0 - - - - - - -
30/10:30am 18.2 N 24 29 1008.9 - 0.0 - - - - - - -
30/10:08am 17.9 N 19 29 1008.9 - 0.0 - - - - - - -
30/10:00am 17.1 N 19 23 1009.2 - 0.0 - - - - - - -
30/09:30am 17.2 NNE 19 24 1009.3 - 0.0 - - - - - - -
30/09:00am 16.7 NNE 20 24 1009.5 - 8.8 - - - - - - -
30/08:30am 15.8 NNE 22 25 1009.3 - 8.8 - - - - - - -
30/08:00am 15.6 NNE 23 27 1009.1 - 8.8 - - - - - - -
30/07:30am 15.5 NNE 23 27 1008.9 - 8.8 - - - - - - -
30/07:00am 15.4 NNE 23 28 1008.7 - 8.8 - - - - - - -
30/06:30am 15.3 NNE 22 25 1008.8 - 8.8 - - - - - - -
30/06:00am 15.4 NNE 22 25 1008.9 - 8.8 - - - - - - -
30/05:30am 15.3 NNE 20 23 1009.1 - 8.8 - - - - - - -
30/05:00am 15.3 NNE 20 23 1009.0 - 8.8 - - - - - - -
30/04:30am 15.4 NNE 17 20 1009.2 - 8.8 - - - - - - -
30/04:00am 15.4 NNE 18 21 1009.2 - 8.8 - - - - - - -
30/03:30am 16.1 N 22 27 1009.1 - 8.8 - - - - - - -
30/03:00am 16.1 N 23 28 1009.2 - 8.8 - - - - - - -
30/02:30am 16.0 N 20 25 1009.5 - 8.8 - - - - - - -
30/02:00am 15.8 N 19 24 1009.7 - 8.8 - - - - - - -
30/01:30am 15.8 N 20 25 1009.7 - 8.8 - - - - - - -
30/01:00am 15.8 N 21 27 1009.8 - 8.8 - - - - - - -
30/12:30am 16.0 N 20 24 1009.5 - 8.8 - - - - - - -
30/12:00am 16.0 N 22 27 1009.6 - 8.8 - - - - - - -
 
Date/Time
EST
Temp

°C
Wind Pressure Rain
since 9am
mm
Weather Cloud Vis
km
Sea
Height
m
Swell
Dir
 
Speed
knots
Gust
knots
hPa Trend Height
m
Period
s
Dir
29/11:30pm 16.0 N 20 24 1009.5 - 8.8 - - - - - - -
29/11:00pm 16.0 N 19 23 1009.7 - 8.8 - - - - - - -
29/10:30pm 16.0 N 19 23 1010.1 - 8.8 - - - - - - -
29/10:00pm 15.8 N 18 24 1010.2 - 8.8 - - - - - - -
29/09:30pm 16.3 NNW 17 22 1010.1 - 8.4 - - - - - - -
29/09:00pm 16.1 NNW 17 27 1010.0 - 8.4 - - - - - - -
29/08:30pm 16.0 NNW 20 27 1009.5 - 8.4 - - - - - - -
29/08:00pm 16.0 NNW 18 27 1009.1 - 8.4 - - - - - - -
29/07:52pm 16.0 NNW 16 27 1009.1 - 8.4 - - - - - - -
29/07:30pm 16.2 NNW 19 26 1009.1 - 8.4 - - - - - - -
29/07:00pm 16.3 NNW 17 23 1008.9 - 8.4 - - - - - - -
29/06:30pm 16.0 N 19 26 1008.8 - 8.4 - - - - - - -
29/06:00pm 16.2 NNW 21 27 1008.5 - 8.4 Rain - - - - - -
29/05:30pm 15.9 NNW 20 27 1008.5 - 8.2 - - - - - - -
29/05:00pm 16.0 NNW 18 25 1008.4 - 8.2 - - - - - - -
29/04:30pm 16.0 NNW 23 32 1007.9 - 8.2 - - - - - - -
29/04:00pm 15.9 N 23 28 1007.8 - 7.6 - - - - - - -
29/03:30pm 15.9 N 19 23 1007.9 - 6.8 - - - - - - -
29/03:00pm 15.7 NNW 18 23 1007.9 - 5.8 Rain - - - - - -
29/02:30pm 16.0 N 21 27 1007.3 - 2.4 - - - - - - -
29/02:00pm 16.1 N 23 28 1007.3 - 1.6 - - - - - - -
29/01:30pm 16.6 N 25 31 1007.1 - 0.8 - - - - - - -
29/01:00pm 17.3 N 24 30 1007.3 - 0.6 - - - - - - -
29/12:30pm 17.8 N 24 30 1007.9 - 0.6 - - - - - - -
29/12:00pm 17.7 N 22 29 1008.5 - 0.6 Recent precip. - - - - - -
29/11:30am 17.4 NNE 24 31 1009.0 - 0.6 - - - - - - -
29/11:00am 17.5 NNE 24 29 1009.0 - 0.4 - - - - - - -
29/10:30am 16.7 NNE 22 26 1009.6 - 0.4 - - - - - - -
29/10:00am 16.9 NNE 22 28 1010.0 - 0.2 - - - - - - -
29/09:30am 16.4 NNE 19 23 1010.5 - 0.2 - - - - - - -

Other Formats:

Comma delimited format used in spreadsheet applications
http://www.bom.gov.au/fwo/IDT60701/IDT60701.94974.axf

JavaScript Object Notation format (JSON) in row-major order
http://www.bom.gov.au/fwo/IDT60701/IDT60701.94974.json